sensor_id;sensor_type;location;lat;lon;timestamp;P1;durP1;ratioP1;P2;durP2;ratioP2
11964;SDS011;6042;41.326;19.826;2023-04-03T00:01:25;11.30;;;4.53;;
11964;SDS011;6042;41.326;19.826;2023-04-03T00:03:53;9.87;;;4.63;;
11964;SDS011;6042;41.326;19.826;2023-04-03T00:06:23;10.93;;;4.50;;
11964;SDS011;6042;41.326;19.826;2023-04-03T00:08:52;8.47;;;4.27;;
11964;SDS011;6042;41.326;19.826;2023-04-03T00:11:21;11.60;;;4.70;;
11964;SDS011;6042;41.326;19.826;2023-04-03T00:13:49;9.83;;;4.93;;
11964;SDS011;6042;41.326;19.826;2023-04-03T00:16:18;8.97;;;4.43;;
11964;SDS011;6042;41.326;19.826;2023-04-03T00:18:47;12.83;;;5.00;;
11964;SDS011;6042;41.326;19.826;2023-04-03T00:21:15;11.53;;;4.40;;
11964;SDS011;6042;41.326;19.826;2023-04-03T00:23:45;14.77;;;4.87;;
11964;SDS011;6042;41.326;19.826;2023-04-03T00:26:14;10.83;;;4.20;;
11964;SDS011;6042;41.326;19.826;2023-04-03T00:28:43;11.27;;;4.27;;
11964;SDS011;6042;41.326;19.826;2023-04-03T00:31:13;10.17;;;4.57;;
11964;SDS011;6042;41.326;19.826;2023-04-03T00:33:42;10.67;;;4.77;;
11964;SDS011;6042;41.326;19.826;2023-04-03T00:36:11;10.17;;;4.70;;
11964;SDS011;6042;41.326;19.826;2023-04-03T00:38:41;8.77;;;4.40;;
11964;SDS011;6042;41.326;19.826;2023-04-03T00:41:11;8.13;;;4.10;;
11964;SDS011;6042;41.326;19.826;2023-04-03T00:43:39;11.00;;;4.27;;
11964;SDS011;6042;41.326;19.826;2023-04-03T00:46:08;11.07;;;4.30;;
11964;SDS011;6042;41.326;19.826;2023-04-03T00:48:38;9.47;;;4.63;;
11964;SDS011;6042;41.326;19.826;2023-04-03T00:51:09;9.07;;;3.77;;
11964;SDS011;6042;41.326;19.826;2023-04-03T00:53:43;8.90;;;4.00;;
11964;SDS011;6042;41.326;19.826;2023-04-03T00:56:16;9.13;;;4.47;;
11964;SDS011;6042;41.326;19.826;2023-04-03T00:58:48;13.43;;;4.80;;
11964;SDS011;6042;41.326;19.826;2023-04-03T01:01:23;7.63;;;3.97;;
11964;SDS011;6042;41.326;19.826;2023-04-03T01:03:54;10.97;;;4.60;;
11964;SDS011;6042;41.326;19.826;2023-04-03T01:06:26;11.87;;;4.13;;
11964;SDS011;6042;41.326;19.826;2023-04-03T01:09:04;7.97;;;4.00;;
11964;SDS011;6042;41.326;19.826;2023-04-03T01:11:34;9.70;;;3.77;;
11964;SDS011;6042;41.326;19.826;2023-04-03T01:14:03;7.73;;;4.30;;
11964;SDS011;6042;41.326;19.826;2023-04-03T01:16:33;11.33;;;3.90;;
11964;SDS011;6042;41.326;19.826;2023-04-03T01:19:02;10.63;;;3.97;;
11964;SDS011;6042;41.326;19.826;2023-04-03T01:21:45;10.10;;;4.17;;
11964;SDS011;6042;41.326;19.826;2023-04-03T01:24:40;7.67;;;4.13;;
11964;SDS011;6042;41.326;19.826;2023-04-03T01:27:11;9.70;;;3.87;;
11964;SDS011;6042;41.326;19.826;2023-04-03T01:32:36;11.57;;;4.93;;
11964;SDS011;6042;41.326;19.826;2023-04-03T01:35:06;7.57;;;3.73;;
11964;SDS011;6042;41.326;19.826;2023-04-03T01:37:36;7.47;;;4.00;;
11964;SDS011;6042;41.326;19.826;2023-04-03T01:40:06;6.43;;;3.73;;
11964;SDS011;6042;41.326;19.826;2023-04-03T01:42:35;10.57;;;4.10;;
11964;SDS011;6042;41.326;19.826;2023-04-03T01:45:04;10.40;;;3.63;;
11964;SDS011;6042;41.326;19.826;2023-04-03T01:47:33;14.53;;;4.63;;
11964;SDS011;6042;41.326;19.826;2023-04-03T01:50:04;10.10;;;4.27;;
11964;SDS011;6042;41.326;19.826;2023-04-03T01:52:33;8.67;;;4.00;;
11964;SDS011;6042;41.326;19.826;2023-04-03T01:55:02;12.03;;;4.43;;
11964;SDS011;6042;41.326;19.826;2023-04-03T01:57:31;10.73;;;4.53;;
11964;SDS011;6042;41.326;19.826;2023-04-03T02:00:00;11.93;;;4.83;;
11964;SDS011;6042;41.326;19.826;2023-04-03T02:02:38;9.83;;;4.30;;
11964;SDS011;6042;41.326;19.826;2023-04-03T02:05:09;8.17;;;4.37;;
11964;SDS011;6042;41.326;19.826;2023-04-03T02:07:38;7.07;;;3.90;;
11964;SDS011;6042;41.326;19.826;2023-04-03T02:10:07;10.67;;;4.20;;
11964;SDS011;6042;41.326;19.826;2023-04-03T02:12:36;7.73;;;4.50;;
11964;SDS011;6042;41.326;19.826;2023-04-03T02:15:05;10.93;;;4.20;;
11964;SDS011;6042;41.326;19.826;2023-04-03T02:17:35;10.50;;;4.57;;
11964;SDS011;6042;41.326;19.826;2023-04-03T02:20:04;8.73;;;4.33;;
11964;SDS011;6042;41.326;19.826;2023-04-03T02:22:34;7.80;;;4.17;;
11964;SDS011;6042;41.326;19.826;2023-04-03T02:25:03;12.73;;;4.00;;
11964;SDS011;6042;41.326;19.826;2023-04-03T02:27:32;9.20;;;4.40;;
11964;SDS011;6042;41.326;19.826;2023-04-03T02:30:02;9.53;;;4.43;;
11964;SDS011;6042;41.326;19.826;2023-04-03T02:32:31;11.20;;;4.47;;
11964;SDS011;6042;41.326;19.826;2023-04-03T02:35:00;9.10;;;4.20;;
11964;SDS011;6042;41.326;19.826;2023-04-03T02:37:29;8.07;;;4.00;;
11964;SDS011;6042;41.326;19.826;2023-04-03T02:39:59;8.33;;;4.20;;
11964;SDS011;6042;41.326;19.826;2023-04-03T02:42:28;8.13;;;3.97;;
11964;SDS011;6042;41.326;19.826;2023-04-03T02:44:56;15.13;;;4.13;;
11964;SDS011;6042;41.326;19.826;2023-04-03T02:47:27;10.33;;;4.70;;
11964;SDS011;6042;41.326;19.826;2023-04-03T02:49:55;10.93;;;5.00;;
11964;SDS011;6042;41.326;19.826;2023-04-03T02:52:24;7.30;;;4.60;;
11964;SDS011;6042;41.326;19.826;2023-04-03T02:54:56;11.87;;;4.30;;
11964;SDS011;6042;41.326;19.826;2023-04-03T02:57:26;10.73;;;4.10;;
11964;SDS011;6042;41.326;19.826;2023-04-03T02:59:55;10.13;;;4.57;;
11964;SDS011;6042;41.326;19.826;2023-04-03T03:02:24;5.50;;;4.00;;
11964;SDS011;6042;41.326;19.826;2023-04-03T03:04:52;11.27;;;4.33;;
11964;SDS011;6042;41.326;19.826;2023-04-03T03:07:22;8.37;;;4.37;;
11964;SDS011;6042;41.326;19.826;2023-04-03T03:09:52;6.07;;;3.83;;
11964;SDS011;6042;41.326;19.826;2023-04-03T03:12:22;8.13;;;4.33;;
11964;SDS011;6042;41.326;19.826;2023-04-03T03:14:51;7.20;;;4.07;;
11964;SDS011;6042;41.326;19.826;2023-04-03T03:17:20;10.07;;;4.50;;
11964;SDS011;6042;41.326;19.826;2023-04-03T03:19:49;8.53;;;3.97;;
11964;SDS011;6042;41.326;19.826;2023-04-03T03:22:18;9.67;;;4.20;;
11964;SDS011;6042;41.326;19.826;2023-04-03T03:24:46;8.20;;;4.40;;
11964;SDS011;6042;41.326;19.826;2023-04-03T03:27:15;8.87;;;4.10;;
11964;SDS011;6042;41.326;19.826;2023-04-03T03:29:45;11.07;;;4.40;;
11964;SDS011;6042;41.326;19.826;2023-04-03T03:32:13;9.53;;;4.80;;
11964;SDS011;6042;41.326;19.826;2023-04-03T03:34:42;8.90;;;4.10;;
11964;SDS011;6042;41.326;19.826;2023-04-03T03:37:10;10.07;;;4.37;;
11964;SDS011;6042;41.326;19.826;2023-04-03T03:39:39;8.00;;;4.17;;
11964;SDS011;6042;41.326;19.826;2023-04-03T03:42:07;8.70;;;4.50;;
11964;SDS011;6042;41.326;19.826;2023-04-03T03:44:36;10.00;;;4.13;;
11964;SDS011;6042;41.326;19.826;2023-04-03T03:47:06;9.03;;;4.27;;
11964;SDS011;6042;41.326;19.826;2023-04-03T03:49:38;6.77;;;3.83;;
11964;SDS011;6042;41.326;19.826;2023-04-03T03:52:07;8.10;;;4.10;;
11964;SDS011;6042;41.326;19.826;2023-04-03T03:54:37;7.97;;;4.17;;
11964;SDS011;6042;41.326;19.826;2023-04-03T03:57:06;8.10;;;5.00;;
11964;SDS011;6042;41.326;19.826;2023-04-03T03:59:35;10.17;;;4.43;;
11964;SDS011;6042;41.326;19.826;2023-04-03T04:02:04;9.20;;;4.47;;
11964;SDS011;6042;41.326;19.826;2023-04-03T04:04:34;8.40;;;4.57;;
11964;SDS011;6042;41.326;19.826;2023-04-03T04:07:03;8.27;;;3.63;;
11964;SDS011;6042;41.326;19.826;2023-04-03T04:09:33;13.37;;;5.20;;
11964;SDS011;6042;41.326;19.826;2023-04-03T04:12:02;7.80;;;4.60;;
11964;SDS011;6042;41.326;19.826;2023-04-03T04:14:31;8.33;;;3.77;;
11964;SDS011;6042;41.326;19.826;2023-04-03T04:17:00;8.00;;;4.03;;
11964;SDS011;6042;41.326;19.826;2023-04-03T04:19:30;6.93;;;3.83;;
11964;SDS011;6042;41.326;19.826;2023-04-03T04:22:01;6.40;;;3.70;;
11964;SDS011;6042;41.326;19.826;2023-04-03T04:24:31;7.87;;;3.93;;
11964;SDS011;6042;41.326;19.826;2023-04-03T04:27:01;9.87;;;4.23;;
11964;SDS011;6042;41.326;19.826;2023-04-03T04:29:31;7.80;;;4.03;;
11964;SDS011;6042;41.326;19.826;2023-04-03T04:32:03;8.50;;;4.43;;
11964;SDS011;6042;41.326;19.826;2023-04-03T04:34:33;10.07;;;4.33;;
11964;SDS011;6042;41.326;19.826;2023-04-03T04:37:03;6.40;;;3.53;;
11964;SDS011;6042;41.326;19.826;2023-04-03T04:39:32;9.33;;;4.07;;
11964;SDS011;6042;41.326;19.826;2023-04-03T04:42:01;6.33;;;4.20;;
11964;SDS011;6042;41.326;19.826;2023-04-03T04:44:31;13.63;;;4.37;;
11964;SDS011;6042;41.326;19.826;2023-04-03T04:47:01;9.23;;;4.30;;
11964;SDS011;6042;41.326;19.826;2023-04-03T04:49:30;6.43;;;4.00;;
11964;SDS011;6042;41.326;19.826;2023-04-03T04:52:00;10.43;;;4.60;;
11964;SDS011;6042;41.326;19.826;2023-04-03T04:54:32;5.27;;;3.63;;
11964;SDS011;6042;41.326;19.826;2023-04-03T04:57:02;10.10;;;4.20;;
11964;SDS011;6042;41.326;19.826;2023-04-03T04:59:30;7.03;;;3.10;;
11964;SDS011;6042;41.326;19.826;2023-04-03T05:02:01;8.93;;;3.17;;
11964;SDS011;6042;41.326;19.826;2023-04-03T05:04:31;4.57;;;3.00;;
11964;SDS011;6042;41.326;19.826;2023-04-03T05:07:06;5.97;;;2.83;;
11964;SDS011;6042;41.326;19.826;2023-04-03T05:09:37;4.50;;;2.43;;
11964;SDS011;6042;41.326;19.826;2023-04-03T05:12:10;4.63;;;2.40;;
11964;SDS011;6042;41.326;19.826;2023-04-03T05:14:46;4.83;;;2.70;;
11964;SDS011;6042;41.326;19.826;2023-04-03T05:17:15;3.80;;;2.47;;
11964;SDS011;6042;41.326;19.826;2023-04-03T05:19:49;4.17;;;1.90;;
11964;SDS011;6042;41.326;19.826;2023-04-03T05:22:20;4.17;;;2.07;;
11964;SDS011;6042;41.326;19.826;2023-04-03T05:24:53;3.13;;;1.90;;
11964;SDS011;6042;41.326;19.826;2023-04-03T05:27:23;4.03;;;1.80;;
11964;SDS011;6042;41.326;19.826;2023-04-03T05:29:53;4.90;;;1.70;;
11964;SDS011;6042;41.326;19.826;2023-04-03T05:32:24;5.80;;;1.90;;
11964;SDS011;6042;41.326;19.826;2023-04-03T05:35:09;3.17;;;2.20;;
11964;SDS011;6042;41.326;19.826;2023-04-03T05:37:39;15.13;;;3.10;;
11964;SDS011;6042;41.326;19.826;2023-04-03T05:40:10;5.40;;;2.30;;
11964;SDS011;6042;41.326;19.826;2023-04-03T05:42:46;2.23;;;1.60;;
11964;SDS011;6042;41.326;19.826;2023-04-03T05:45:16;3.80;;;2.30;;
11964;SDS011;6042;41.326;19.826;2023-04-03T05:47:45;3.33;;;1.50;;
11964;SDS011;6042;41.326;19.826;2023-04-03T05:50:14;3.67;;;1.43;;
11964;SDS011;6042;41.326;19.826;2023-04-03T05:52:44;9.53;;;2.30;;
11964;SDS011;6042;41.326;19.826;2023-04-03T05:55:18;5.73;;;1.60;;
11964;SDS011;6042;41.326;19.826;2023-04-03T05:57:47;1.93;;;1.20;;
11964;SDS011;6042;41.326;19.826;2023-04-03T06:00:16;1.50;;;1.10;;
11964;SDS011;6042;41.326;19.826;2023-04-03T06:02:54;3.63;;;1.97;;
11964;SDS011;6042;41.326;19.826;2023-04-03T06:05:24;9.97;;;2.60;;
11964;SDS011;6042;41.326;19.826;2023-04-03T06:07:53;10.57;;;1.73;;
11964;SDS011;6042;41.326;19.826;2023-04-03T06:10:25;4.33;;;2.00;;
11964;SDS011;6042;41.326;19.826;2023-04-03T06:12:53;3.57;;;2.20;;
11964;SDS011;6042;41.326;19.826;2023-04-03T06:15:22;6.90;;;2.10;;
11964;SDS011;6042;41.326;19.826;2023-04-03T06:17:51;2.50;;;1.47;;
11964;SDS011;6042;41.326;19.826;2023-04-03T06:20:20;3.67;;;1.27;;
11964;SDS011;6042;41.326;19.826;2023-04-03T06:22:48;2.07;;;1.20;;
11964;SDS011;6042;41.326;19.826;2023-04-03T06:25:17;2.90;;;1.33;;
11964;SDS011;6042;41.326;19.826;2023-04-03T06:27:47;1.37;;;1.27;;
11964;SDS011;6042;41.326;19.826;2023-04-03T06:30:16;3.40;;;1.50;;
11964;SDS011;6042;41.326;19.826;2023-04-03T06:32:44;6.43;;;1.70;;
11964;SDS011;6042;41.326;19.826;2023-04-03T06:35:13;8.07;;;1.97;;
11964;SDS011;6042;41.326;19.826;2023-04-03T06:37:42;4.70;;;1.50;;
11964;SDS011;6042;41.326;19.826;2023-04-03T06:40:14;4.10;;;1.60;;
11964;SDS011;6042;41.326;19.826;2023-04-03T06:42:50;3.80;;;1.50;;
11964;SDS011;6042;41.326;19.826;2023-04-03T06:45:19;4.40;;;1.50;;
11964;SDS011;6042;41.326;19.826;2023-04-03T06:47:48;5.03;;;1.30;;
11964;SDS011;6042;41.326;19.826;2023-04-03T06:50:16;1.30;;;1.17;;
11964;SDS011;6042;41.326;19.826;2023-04-03T06:52:45;2.00;;;0.97;;
11964;SDS011;6042;41.326;19.826;2023-04-03T06:55:14;3.17;;;1.20;;
11964;SDS011;6042;41.326;19.826;2023-04-03T06:57:42;3.97;;;1.30;;
11964;SDS011;6042;41.326;19.826;2023-04-03T07:00:13;4.37;;;1.50;;
11964;SDS011;6042;41.326;19.826;2023-04-03T07:02:42;1.93;;;1.17;;
11964;SDS011;6042;41.326;19.826;2023-04-03T07:05:12;3.77;;;1.43;;
11964;SDS011;6042;41.326;19.826;2023-04-03T07:07:41;1.33;;;1.23;;
11964;SDS011;6042;41.326;19.826;2023-04-03T07:10:10;4.53;;;1.60;;
11964;SDS011;6042;41.326;19.826;2023-04-03T07:12:39;3.47;;;1.23;;
11964;SDS011;6042;41.326;19.826;2023-04-03T07:15:08;6.70;;;1.60;;
11964;SDS011;6042;41.326;19.826;2023-04-03T07:17:39;2.77;;;1.50;;
11964;SDS011;6042;41.326;19.826;2023-04-03T07:20:08;3.27;;;1.20;;
11964;SDS011;6042;41.326;19.826;2023-04-03T07:22:37;5.23;;;1.57;;
11964;SDS011;6042;41.326;19.826;2023-04-03T07:25:06;3.07;;;1.60;;
11964;SDS011;6042;41.326;19.826;2023-04-03T07:27:35;2.17;;;1.47;;
11964;SDS011;6042;41.326;19.826;2023-04-03T07:30:04;3.17;;;1.47;;
11964;SDS011;6042;41.326;19.826;2023-04-03T07:32:34;4.90;;;1.50;;
11964;SDS011;6042;41.326;19.826;2023-04-03T07:35:04;2.20;;;1.43;;
11964;SDS011;6042;41.326;19.826;2023-04-03T07:37:33;1.60;;;1.10;;
11964;SDS011;6042;41.326;19.826;2023-04-03T07:40:02;1.33;;;1.20;;
11964;SDS011;6042;41.326;19.826;2023-04-03T07:42:31;3.00;;;1.50;;
11964;SDS011;6042;41.326;19.826;2023-04-03T07:45:00;3.70;;;1.47;;
11964;SDS011;6042;41.326;19.826;2023-04-03T07:47:30;3.10;;;1.53;;
11964;SDS011;6042;41.326;19.826;2023-04-03T07:49:58;3.43;;;1.23;;
11964;SDS011;6042;41.326;19.826;2023-04-03T07:52:28;1.67;;;1.30;;
11964;SDS011;6042;41.326;19.826;2023-04-03T07:54:57;1.90;;;1.37;;
11964;SDS011;6042;41.326;19.826;2023-04-03T07:57:26;1.60;;;1.50;;
11964;SDS011;6042;41.326;19.826;2023-04-03T07:59:54;3.60;;;1.50;;
11964;SDS011;6042;41.326;19.826;2023-04-03T08:02:23;2.13;;;1.20;;
11964;SDS011;6042;41.326;19.826;2023-04-03T08:04:51;3.00;;;1.10;;
11964;SDS011;6042;41.326;19.826;2023-04-03T08:07:20;2.20;;;1.33;;
11964;SDS011;6042;41.326;19.826;2023-04-03T08:09:50;1.73;;;1.10;;
11964;SDS011;6042;41.326;19.826;2023-04-03T08:12:19;1.80;;;1.33;;
11964;SDS011;6042;41.326;19.826;2023-04-03T08:14:47;2.07;;;1.13;;
11964;SDS011;6042;41.326;19.826;2023-04-03T08:17:16;6.13;;;1.60;;
11964;SDS011;6042;41.326;19.826;2023-04-03T08:19:44;2.20;;;1.23;;
11964;SDS011;6042;41.326;19.826;2023-04-03T08:22:13;4.10;;;1.40;;
11964;SDS011;6042;41.326;19.826;2023-04-03T08:24:42;2.93;;;1.50;;
11964;SDS011;6042;41.326;19.826;2023-04-03T08:27:26;12.93;;;3.50;;
11964;SDS011;6042;41.326;19.826;2023-04-03T08:29:55;2.37;;;1.10;;
11964;SDS011;6042;41.326;19.826;2023-04-03T08:32:24;8.03;;;1.87;;
11964;SDS011;6042;41.326;19.826;2023-04-03T08:34:53;4.60;;;1.67;;
11964;SDS011;6042;41.326;19.826;2023-04-03T08:37:22;5.87;;;1.53;;
11964;SDS011;6042;41.326;19.826;2023-04-03T08:39:50;2.80;;;2.13;;
11964;SDS011;6042;41.326;19.826;2023-04-03T08:42:23;2.17;;;1.37;;
11964;SDS011;6042;41.326;19.826;2023-04-03T08:45:06;5.30;;;1.40;;
11964;SDS011;6042;41.326;19.826;2023-04-03T08:47:40;4.50;;;1.20;;
11964;SDS011;6042;41.326;19.826;2023-04-03T08:50:15;5.87;;;1.50;;
11964;SDS011;6042;41.326;19.826;2023-04-03T08:52:47;3.37;;;1.50;;
11964;SDS011;6042;41.326;19.826;2023-04-03T08:55:22;1.93;;;1.60;;
11964;SDS011;6042;41.326;19.826;2023-04-03T08:57:57;1.30;;;1.20;;
11964;SDS011;6042;41.326;19.826;2023-04-03T09:00:30;5.97;;;1.67;;
11964;SDS011;6042;41.326;19.826;2023-04-03T09:03:10;1.33;;;1.10;;
11964;SDS011;6042;41.326;19.826;2023-04-03T09:05:41;1.70;;;1.20;;
11964;SDS011;6042;41.326;19.826;2023-04-03T09:08:18;3.93;;;1.20;;
11964;SDS011;6042;41.326;19.826;2023-04-03T09:10:58;2.47;;;1.30;;
11964;SDS011;6042;41.326;19.826;2023-04-03T09:13:38;5.73;;;1.37;;
11964;SDS011;6042;41.326;19.826;2023-04-03T09:16:20;1.20;;;1.10;;
11964;SDS011;6042;41.326;19.826;2023-04-03T09:18:57;1.40;;;1.00;;
11964;SDS011;6042;41.326;19.826;2023-04-03T09:21:36;1.40;;;1.10;;
11964;SDS011;6042;41.326;19.826;2023-04-03T09:24:09;4.47;;;1.03;;
11964;SDS011;6042;41.326;19.826;2023-04-03T09:26:41;1.90;;;1.10;;
11964;SDS011;6042;41.326;19.826;2023-04-03T09:29:15;2.07;;;0.90;;
11964;SDS011;6042;41.326;19.826;2023-04-03T09:31:47;1.27;;;1.00;;
11964;SDS011;6042;41.326;19.826;2023-04-03T09:34:19;3.47;;;1.27;;
11964;SDS011;6042;41.326;19.826;2023-04-03T09:36:51;4.70;;;1.30;;
11964;SDS011;6042;41.326;19.826;2023-04-03T09:39:21;2.60;;;1.90;;
11964;SDS011;6042;41.326;19.826;2023-04-03T09:41:57;1.63;;;1.20;;
11964;SDS011;6042;41.326;19.826;2023-04-03T09:44:34;3.47;;;1.00;;
11964;SDS011;6042;41.326;19.826;2023-04-03T09:47:17;2.37;;;1.00;;
11964;SDS011;6042;41.326;19.826;2023-04-03T09:49:47;4.60;;;1.30;;
11964;SDS011;6042;41.326;19.826;2023-04-03T09:52:19;1.60;;;1.10;;
11964;SDS011;6042;41.326;19.826;2023-04-03T09:54:51;3.77;;;1.30;;
11964;SDS011;6042;41.326;19.826;2023-04-03T09:57:20;1.90;;;1.20;;
11964;SDS011;6042;41.326;19.826;2023-04-03T09:59:58;3.90;;;1.00;;
11964;SDS011;6042;41.326;19.826;2023-04-03T10:02:32;3.27;;;0.90;;
11964;SDS011;6042;41.326;19.826;2023-04-03T10:05:04;2.30;;;0.90;;
11964;SDS011;6042;41.326;19.826;2023-04-03T10:08:08;1.47;;;1.00;;
11964;SDS011;6042;41.326;19.826;2023-04-03T10:10:39;2.73;;;1.10;;
11964;SDS011;6042;41.326;19.826;2023-04-03T10:13:10;1.00;;;1.00;;
11964;SDS011;6042;41.326;19.826;2023-04-03T10:15:50;3.20;;;1.20;;
11964;SDS011;6042;41.326;19.826;2023-04-03T10:18:29;5.93;;;1.30;;
11964;SDS011;6042;41.326;19.826;2023-04-03T10:21:06;9.07;;;1.80;;
11964;SDS011;6042;41.326;19.826;2023-04-03T10:23:54;2.13;;;1.50;;
11964;SDS011;6042;41.326;19.826;2023-04-03T10:26:32;4.63;;;1.90;;
11964;SDS011;6042;41.326;19.826;2023-04-03T10:29:09;1.30;;;1.20;;
11964;SDS011;6042;41.326;19.826;2023-04-03T10:31:51;1.43;;;1.23;;
11964;SDS011;6042;41.326;19.826;2023-04-03T10:34:26;4.00;;;1.20;;
11964;SDS011;6042;41.326;19.826;2023-04-03T10:37:01;0.70;;;0.70;;
11964;SDS011;6042;41.326;19.826;2023-04-03T10:39:42;0.83;;;0.83;;
11964;SDS011;6042;41.326;19.826;2023-04-03T10:42:20;2.17;;;0.80;;
11964;SDS011;6042;41.326;19.826;2023-04-03T10:45:08;2.13;;;1.00;;
11964;SDS011;6042;41.326;19.826;2023-04-03T10:47:50;1.83;;;1.10;;
11964;SDS011;6042;41.326;19.826;2023-04-03T10:50:30;3.63;;;1.50;;
11964;SDS011;6042;41.326;19.826;2023-04-03T10:53:08;1.23;;;0.60;;
11964;SDS011;6042;41.326;19.826;2023-04-03T10:55:48;4.67;;;1.17;;
11964;SDS011;6042;41.326;19.826;2023-04-03T10:58:24;2.00;;;1.37;;
11964;SDS011;6042;41.326;19.826;2023-04-03T11:00:57;5.20;;;1.50;;
11964;SDS011;6042;41.326;19.826;2023-04-03T11:03:32;1.63;;;1.10;;
11964;SDS011;6042;41.326;19.826;2023-04-03T11:06:05;2.17;;;1.70;;
11964;SDS011;6042;41.326;19.826;2023-04-03T11:08:39;1.87;;;0.90;;
11964;SDS011;6042;41.326;19.826;2023-04-03T11:11:13;3.23;;;1.00;;
11964;SDS011;6042;41.326;19.826;2023-04-03T11:13:46;1.07;;;0.80;;
11964;SDS011;6042;41.326;19.826;2023-04-03T11:16:20;0.60;;;0.60;;
11964;SDS011;6042;41.326;19.826;2023-04-03T11:18:54;0.60;;;0.60;;
11964;SDS011;6042;41.326;19.826;2023-04-03T11:21:28;1.90;;;0.60;;
11964;SDS011;6042;41.326;19.826;2023-04-03T11:24:02;1.00;;;0.93;;
11964;SDS011;6042;41.326;19.826;2023-04-03T11:26:35;2.20;;;0.60;;
11964;SDS011;6042;41.326;19.826;2023-04-03T11:29:08;1.00;;;0.90;;
11964;SDS011;6042;41.326;19.826;2023-04-03T11:32:06;4.17;;;1.70;;
11964;SDS011;6042;41.326;19.826;2023-04-03T11:34:41;1.20;;;1.10;;
11964;SDS011;6042;41.326;19.826;2023-04-03T11:37:13;2.10;;;1.27;;
11964;SDS011;6042;41.326;19.826;2023-04-03T11:39:51;2.83;;;0.80;;
11964;SDS011;6042;41.326;19.826;2023-04-03T11:42:27;1.60;;;1.17;;
11964;SDS011;6042;41.326;19.826;2023-04-03T11:45:24;1.20;;;0.70;;
11964;SDS011;6042;41.326;19.826;2023-04-03T11:48:00;1.50;;;0.87;;
11964;SDS011;6042;41.326;19.826;2023-04-03T11:50:51;1.70;;;0.80;;
11964;SDS011;6042;41.326;19.826;2023-04-03T11:53:27;3.47;;;0.80;;
11964;SDS011;6042;41.326;19.826;2023-04-03T12:01:55;1.53;;;1.30;;
11964;SDS011;6042;41.326;19.826;2023-04-03T12:04:25;2.33;;;1.43;;
11964;SDS011;6042;41.326;19.826;2023-04-03T12:07:11;3.13;;;2.67;;
11964;SDS011;6042;41.326;19.826;2023-04-03T12:12:58;1.30;;;0.60;;
11964;SDS011;6042;41.326;19.826;2023-04-03T12:24:52;0.63;;;0.50;;
11964;SDS011;6042;41.326;19.826;2023-04-03T12:27:25;1.87;;;0.70;;
11964;SDS011;6042;41.326;19.826;2023-04-03T12:29:59;1.70;;;1.03;;
11964;SDS011;6042;41.326;19.826;2023-04-03T12:32:41;0.50;;;0.50;;
11964;SDS011;6042;41.326;19.826;2023-04-03T12:35:29;4.53;;;1.13;;
11964;SDS011;6042;41.326;19.826;2023-04-03T12:41:16;0.87;;;0.80;;
11964;SDS011;6042;41.326;19.826;2023-04-03T12:43:59;1.40;;;1.30;;
11964;SDS011;6042;41.326;19.826;2023-04-03T12:46:38;3.13;;;1.60;;
11964;SDS011;6042;41.326;19.826;2023-04-03T12:49:18;2.07;;;1.87;;
11964;SDS011;6042;41.326;19.826;2023-04-03T12:51:54;2.37;;;1.73;;
11964;SDS011;6042;41.326;19.826;2023-04-03T12:54:25;2.77;;;1.90;;
11964;SDS011;6042;41.326;19.826;2023-04-03T12:57:12;5.07;;;1.80;;
11964;SDS011;6042;41.326;19.826;2023-04-03T12:59:44;4.53;;;2.00;;
11964;SDS011;6042;41.326;19.826;2023-04-03T13:02:20;1.73;;;0.90;;
11964;SDS011;6042;41.326;19.826;2023-04-03T13:04:51;1.20;;;1.00;;
11964;SDS011;6042;41.326;19.826;2023-04-03T13:07:22;0.80;;;0.80;;
11964;SDS011;6042;41.326;19.826;2023-04-03T13:09:56;1.10;;;1.00;;
11964;SDS011;6042;41.326;19.826;2023-04-03T13:12:28;0.40;;;0.40;;
11964;SDS011;6042;41.326;19.826;2023-04-03T13:14:58;5.30;;;1.17;;
11964;SDS011;6042;41.326;19.826;2023-04-03T13:17:31;3.90;;;1.00;;
11964;SDS011;6042;41.326;19.826;2023-04-03T13:20:10;4.93;;;1.70;;
11964;SDS011;6042;41.326;19.826;2023-04-03T13:22:44;2.63;;;1.03;;
11964;SDS011;6042;41.326;19.826;2023-04-03T13:25:18;3.77;;;1.80;;
11964;SDS011;6042;41.326;19.826;2023-04-03T13:27:51;1.30;;;1.20;;
11964;SDS011;6042;41.326;19.826;2023-04-03T13:30:38;5.93;;;2.20;;
11964;SDS011;6042;41.326;19.826;2023-04-03T13:33:18;3.60;;;1.97;;
11964;SDS011;6042;41.326;19.826;2023-04-03T13:35:54;2.40;;;1.50;;
11964;SDS011;6042;41.326;19.826;2023-04-03T13:38:25;3.33;;;1.50;;
11964;SDS011;6042;41.326;19.826;2023-04-03T13:40:58;3.37;;;1.50;;
11964;SDS011;6042;41.326;19.826;2023-04-03T13:43:31;1.90;;;1.53;;
11964;SDS011;6042;41.326;19.826;2023-04-03T13:46:02;2.77;;;1.60;;
11964;SDS011;6042;41.326;19.826;2023-04-03T13:48:37;2.83;;;1.70;;
11964;SDS011;6042;41.326;19.826;2023-04-03T13:51:16;2.17;;;1.80;;
11964;SDS011;6042;41.326;19.826;2023-04-03T13:53:48;11.97;;;2.13;;
11964;SDS011;6042;41.326;19.826;2023-04-03T13:56:24;4.43;;;1.70;;
11964;SDS011;6042;41.326;19.826;2023-04-03T13:58:59;1.43;;;1.27;;
11964;SDS011;6042;41.326;19.826;2023-04-03T14:01:42;2.93;;;1.80;;
11964;SDS011;6042;41.326;19.826;2023-04-03T14:04:14;3.37;;;1.60;;
11964;SDS011;6042;41.326;19.826;2023-04-03T14:06:45;4.57;;;1.83;;
11964;SDS011;6042;41.326;19.826;2023-04-03T14:09:15;1.97;;;1.37;;
11964;SDS011;6042;41.326;19.826;2023-04-03T14:11:46;1.50;;;1.40;;
11964;SDS011;6042;41.326;19.826;2023-04-03T14:14:17;3.53;;;1.77;;
11964;SDS011;6042;41.326;19.826;2023-04-03T14:16:50;1.30;;;1.10;;
11964;SDS011;6042;41.326;19.826;2023-04-03T14:19:22;3.30;;;1.30;;
11964;SDS011;6042;41.326;19.826;2023-04-03T14:21:54;1.60;;;1.40;;
11964;SDS011;6042;41.326;19.826;2023-04-03T14:24:23;2.17;;;1.83;;
11964;SDS011;6042;41.326;19.826;2023-04-03T14:26:54;2.50;;;2.17;;
11964;SDS011;6042;41.326;19.826;2023-04-03T14:29:24;3.30;;;2.10;;
11964;SDS011;6042;41.326;19.826;2023-04-03T14:31:53;2.67;;;1.77;;
11964;SDS011;6042;41.326;19.826;2023-04-03T14:34:40;2.47;;;1.77;;
11964;SDS011;6042;41.326;19.826;2023-04-03T14:37:10;5.87;;;2.23;;
11964;SDS011;6042;41.326;19.826;2023-04-03T14:39:41;4.30;;;2.20;;
11964;SDS011;6042;41.326;19.826;2023-04-03T14:42:11;4.37;;;2.03;;
11964;SDS011;6042;41.326;19.826;2023-04-03T14:44:43;5.07;;;2.03;;
11964;SDS011;6042;41.326;19.826;2023-04-03T14:47:14;3.83;;;1.90;;
11964;SDS011;6042;41.326;19.826;2023-04-03T14:49:57;2.90;;;1.90;;
11964;SDS011;6042;41.326;19.826;2023-04-03T14:52:27;4.27;;;2.17;;
11964;SDS011;6042;41.326;19.826;2023-04-03T14:54:57;5.67;;;2.47;;
11964;SDS011;6042;41.326;19.826;2023-04-03T14:57:28;2.20;;;1.83;;
11964;SDS011;6042;41.326;19.826;2023-04-03T14:59:59;2.10;;;1.90;;
11964;SDS011;6042;41.326;19.826;2023-04-03T15:02:31;1.80;;;1.70;;
11964;SDS011;6042;41.326;19.826;2023-04-03T15:05:01;3.80;;;1.83;;
11964;SDS011;6042;41.326;19.826;2023-04-03T15:07:32;4.83;;;4.20;;
11964;SDS011;6042;41.326;19.826;2023-04-03T15:10:05;3.07;;;2.83;;
11964;SDS011;6042;41.326;19.826;2023-04-03T15:12:44;2.30;;;2.10;;
11964;SDS011;6042;41.326;19.826;2023-04-03T15:15:15;2.60;;;2.10;;
11964;SDS011;6042;41.326;19.826;2023-04-03T15:17:47;3.30;;;2.00;;
11964;SDS011;6042;41.326;19.826;2023-04-03T15:20:21;4.37;;;2.10;;
11964;SDS011;6042;41.326;19.826;2023-04-03T15:22:51;2.03;;;1.50;;
11964;SDS011;6042;41.326;19.826;2023-04-03T15:25:19;5.83;;;2.30;;
11964;SDS011;6042;41.326;19.826;2023-04-03T15:27:48;4.50;;;2.07;;
11964;SDS011;6042;41.326;19.826;2023-04-03T15:30:18;7.90;;;2.67;;
11964;SDS011;6042;41.326;19.826;2023-04-03T15:32:48;3.37;;;2.77;;
11964;SDS011;6042;41.326;19.826;2023-04-03T15:35:18;4.33;;;2.43;;
11964;SDS011;6042;41.326;19.826;2023-04-03T15:37:47;4.27;;;2.70;;
11964;SDS011;6042;41.326;19.826;2023-04-03T15:40:17;7.97;;;2.23;;